createdAt,value
2023-02-26T00:02:02.144Z,100.00
2023-02-26T00:04:30.979Z,100.00
2023-02-26T00:07:00.759Z,100.00
2023-02-26T00:09:29.364Z,100.00
2023-02-26T00:11:58.384Z,100.00
2023-02-26T00:14:27.435Z,100.00
2023-02-26T00:17:08.655Z,100.00
2023-02-26T00:19:37.561Z,100.00
2023-02-26T00:22:07.967Z,100.00
2023-02-26T00:24:36.371Z,100.00
2023-02-26T00:27:04.920Z,100.00
2023-02-26T00:29:34.077Z,100.00
2023-02-26T00:32:03.410Z,100.00
2023-02-26T00:34:32.631Z,100.00
2023-02-26T00:37:14.289Z,100.00
2023-02-26T00:39:52.351Z,100.00
2023-02-26T00:42:21.432Z,100.00
2023-02-26T00:44:50.508Z,100.00
2023-02-26T00:47:30.435Z,100.00
2023-02-26T00:50:09.979Z,100.00
2023-02-26T00:52:47.374Z,100.00
2023-02-26T00:55:16.126Z,100.00
2023-02-26T00:57:44.655Z,100.00
2023-02-26T01:00:14.336Z,100.00
2023-02-26T01:02:43.436Z,100.00
2023-02-26T01:05:13.375Z,100.00
2023-02-26T01:07:48.435Z,100.00
2023-02-26T01:10:18.021Z,100.00
2023-02-26T01:12:47.193Z,100.00
2023-02-26T01:15:16.458Z,100.00
2023-02-26T01:17:48.590Z,100.00
2023-02-26T01:20:20.186Z,100.00
2023-02-26T01:22:56.021Z,100.00
2023-02-26T01:25:26.558Z,100.00
2023-02-26T01:27:56.899Z,100.00
2023-02-26T01:30:26.472Z,100.00
2023-02-26T01:33:04.553Z,100.00
2023-02-26T01:35:40.860Z,100.00
2023-02-26T01:38:21.640Z,100.00
2023-02-26T01:41:26.034Z,100.00
2023-02-26T01:44:01.782Z,100.00
2023-02-26T01:46:34.823Z,100.00
2023-02-26T01:49:04.648Z,100.00
2023-02-26T01:51:48.079Z,100.00
2023-02-26T01:54:21.536Z,100.00
2023-02-26T01:56:54.245Z,100.00
2023-02-26T01:59:24.684Z,100.00
2023-02-26T02:01:54.750Z,100.00
2023-02-26T02:04:24.485Z,100.00
2023-02-26T02:06:53.636Z,100.00
2023-02-26T02:09:23.503Z,100.00
2023-02-26T02:12:11.144Z,100.00
2023-02-26T02:14:47.338Z,100.00
2023-02-26T02:17:24.360Z,100.00
2023-02-26T02:20:18.125Z,100.00
2023-02-26T02:23:00.588Z,100.00
2023-02-26T02:25:52.416Z,100.00
2023-02-26T02:28:33.814Z,100.00
2023-02-26T02:31:08.134Z,100.00
2023-02-26T02:33:43.611Z,100.00
2023-02-26T02:36:17.351Z,100.00
2023-02-26T02:38:51.928Z,100.00
2023-02-26T02:41:25.785Z,100.00
2023-02-26T02:43:56.432Z,100.00
2023-02-26T02:46:31.242Z,100.00
2023-02-26T02:49:04.099Z,100.00
2023-02-26T02:51:36.629Z,100.00
2023-02-26T02:54:09.463Z,100.00
2023-02-26T02:56:44.749Z,100.00
2023-02-26T02:59:19.784Z,100.00
2023-02-26T03:01:54.997Z,100.00
2023-02-26T03:04:23.545Z,100.00
2023-02-26T03:06:51.992Z,100.00
2023-02-26T03:09:20.404Z,100.00
2023-02-26T03:11:48.737Z,100.00
2023-02-26T03:14:18.210Z,100.00
2023-02-26T03:17:20.832Z,100.00
2023-02-26T03:20:00.834Z,100.00
2023-02-26T03:22:36.036Z,100.00
2023-02-26T03:25:10.598Z,100.00
2023-02-26T03:27:48.390Z,100.00
2023-02-26T03:30:22.925Z,100.00
2023-02-26T03:33:02.002Z,100.00
2023-02-26T03:35:37.063Z,100.00
2023-02-26T03:38:12.590Z,100.00
2023-02-26T03:40:45.023Z,100.00
2023-02-26T03:43:21.018Z,100.00
2023-02-26T03:45:54.035Z,100.00
2023-02-26T03:48:28.598Z,100.00
2023-02-26T03:51:03.321Z,100.00
2023-02-26T03:53:57.795Z,100.00
2023-02-26T03:56:34.484Z,100.00
2023-02-26T03:59:03.645Z,100.00
2023-02-26T04:02:06.709Z,100.00
2023-02-26T04:04:46.684Z,100.00
2023-02-26T04:07:18.058Z,100.00
2023-02-26T04:09:49.569Z,100.00
2023-02-26T04:12:23.011Z,100.00
2023-02-26T04:14:52.450Z,100.00
2023-02-26T04:17:20.881Z,100.00
2023-02-26T04:19:50.790Z,100.00
2023-02-26T04:22:19.812Z,100.00
2023-02-26T04:24:48.160Z,100.00
2023-02-26T04:27:18.319Z,100.00
2023-02-26T04:29:46.800Z,100.00
2023-02-26T04:32:15.546Z,100.00
2023-02-26T04:34:43.993Z,100.00
2023-02-26T04:37:13.808Z,100.00
2023-02-26T04:39:44.385Z,100.00
2023-02-26T04:42:13.298Z,100.00
2023-02-26T04:44:42.143Z,100.00
2023-02-26T04:47:10.547Z,100.00
2023-02-26T04:49:39.675Z,100.00
2023-02-26T04:52:08.222Z,100.00
2023-02-26T04:54:38.791Z,100.00
2023-02-26T04:57:07.891Z,100.00
2023-02-26T04:59:36.310Z,100.00
2023-02-26T05:02:04.967Z,100.00
2023-02-26T05:04:34.465Z,100.00
2023-02-26T05:07:05.888Z,100.00
2023-02-26T05:09:34.334Z,100.00
2023-02-26T05:12:04.232Z,100.00
2023-02-26T05:14:33.116Z,100.00
2023-02-26T05:17:01.481Z,100.00
2023-02-26T05:19:29.897Z,100.00
2023-02-26T05:21:58.279Z,100.00
2023-02-26T05:24:26.769Z,100.00
2023-02-26T05:26:55.161Z,100.00
2023-02-26T05:29:25.819Z,100.00
2023-02-26T05:31:55.405Z,100.00
2023-02-26T05:34:24.169Z,100.00
2023-02-26T05:36:52.618Z,100.00
2023-02-26T05:39:21.017Z,100.00
2023-02-26T05:41:49.399Z,100.00
2023-02-26T05:44:17.740Z,100.00
2023-02-26T05:46:47.497Z,100.00
2023-02-26T05:49:16.130Z,100.00
2023-02-26T05:51:44.548Z,100.00
2023-02-26T05:54:12.941Z,100.00
2023-02-26T05:56:41.446Z,100.00
2023-02-26T05:59:09.784Z,100.00
2023-02-26T06:01:38.828Z,100.00
2023-02-26T06:04:08.781Z,100.00
2023-02-26T06:06:37.148Z,100.00
2023-02-26T06:09:06.099Z,100.00
2023-02-26T06:11:34.837Z,100.00
2023-02-26T06:14:03.171Z,100.00
2023-02-26T06:16:32.738Z,100.00
2023-02-26T06:19:01.190Z,100.00
2023-02-26T06:21:31.054Z,100.00
2023-02-26T06:23:59.492Z,100.00
2023-02-26T06:26:28.231Z,100.00
2023-02-26T06:28:57.396Z,100.00
2023-02-26T06:31:25.853Z,100.00
2023-02-26T06:33:54.188Z,100.00
2023-02-26T06:36:22.604Z,100.00
2023-02-26T06:38:52.446Z,100.00
2023-02-26T06:41:20.846Z,100.00
2023-02-26T06:43:49.208Z,100.00
2023-02-26T06:46:17.830Z,100.00
2023-02-26T06:48:46.181Z,100.00
2023-02-26T06:51:14.587Z,100.00
2023-02-26T06:53:43.012Z,100.00
2023-02-26T06:56:12.834Z,100.00
2023-02-26T06:58:41.379Z,100.00
2023-02-26T07:01:10.404Z,100.00
2023-02-26T07:03:38.878Z,100.00
2023-02-26T07:06:25.935Z,100.00
2023-02-26T07:08:56.068Z,100.00
2023-02-26T07:11:27.650Z,100.00
2023-02-26T07:13:56.107Z,100.00
2023-02-26T07:16:24.838Z,100.00
2023-02-26T07:18:53.383Z,100.00
2023-02-26T07:21:21.829Z,100.00
2023-02-26T07:23:50.186Z,100.00
2023-02-26T07:26:18.591Z,100.00
2023-02-26T07:28:48.434Z,100.00
2023-02-26T07:31:17.280Z,99.42
2023-02-26T07:33:45.708Z,100.00
2023-02-26T07:36:14.212Z,100.00
2023-02-26T07:38:42.560Z,100.00
2023-02-26T07:41:11.041Z,100.00
2023-02-26T07:43:39.581Z,99.69
2023-02-26T07:46:09.406Z,94.55
2023-02-26T07:48:37.888Z,100.00
2023-02-26T07:51:07.861Z,100.00
2023-02-26T07:53:36.290Z,94.03
2023-02-26T07:56:05.766Z,87.48
2023-02-26T07:58:34.534Z,85.01
2023-02-26T08:01:02.962Z,84.45
2023-02-26T08:03:33.188Z,82.22
2023-02-26T08:06:01.645Z,79.75
2023-02-26T08:08:30.111Z,77.84
2023-02-26T08:11:00.577Z,77.18
2023-02-26T08:13:29.138Z,77.39
2023-02-26T08:15:57.561Z,75.54
2023-02-26T08:18:25.955Z,75.04
2023-02-26T08:20:55.811Z,72.14
2023-02-26T08:23:24.705Z,70.72
2023-02-26T08:26:00.262Z,70.71
2023-02-26T08:28:28.665Z,68.90
2023-02-26T08:30:57.379Z,67.87
2023-02-26T08:33:26.315Z,66.63
2023-02-26T08:35:59.005Z,68.31
2023-02-26T08:38:27.636Z,65.34
2023-02-26T08:40:57.307Z,68.82
2023-02-26T08:43:26.120Z,68.78
2023-02-26T08:45:55.827Z,72.20
2023-02-26T08:48:24.534Z,78.20
2023-02-26T08:50:53.399Z,80.77
2023-02-26T08:53:23.121Z,83.07
2023-02-26T08:55:53.123Z,80.34
2023-02-26T08:58:22.435Z,72.71
2023-02-26T09:00:50.838Z,73.42
2023-02-26T09:03:19.251Z,72.27
2023-02-26T09:05:47.641Z,68.44
2023-02-26T09:08:16.262Z,64.64
2023-02-26T09:10:46.074Z,61.61
2023-02-26T09:13:15.064Z,58.33
2023-02-26T09:15:43.621Z,62.36
2023-02-26T09:18:15.427Z,62.22
2023-02-26T09:20:44.379Z,60.04
2023-02-26T09:23:13.523Z,59.79
2023-02-26T09:25:42.089Z,58.51
2023-02-26T09:28:11.863Z,56.37
2023-02-26T09:30:40.280Z,55.71
2023-02-26T09:33:09.495Z,52.04
2023-02-26T09:35:37.911Z,53.71
2023-02-26T09:38:06.299Z,54.94
2023-02-26T09:40:43.979Z,53.06
2023-02-26T09:43:31.208Z,52.43
2023-02-26T09:46:04.092Z,57.85
2023-02-26T09:48:34.809Z,58.17
2023-02-26T09:51:04.310Z,58.63
2023-02-26T09:53:38.398Z,56.29
2023-02-26T09:56:15.780Z,52.91
2023-02-26T09:58:46.389Z,50.80
2023-02-26T10:01:19.879Z,49.06
2023-02-26T10:03:58.540Z,47.26
2023-02-26T10:06:30.506Z,47.16
2023-02-26T10:09:20.762Z,45.17
2023-02-26T10:11:54.137Z,46.66
2023-02-26T10:14:31.140Z,45.45
2023-02-26T10:17:04.095Z,46.22
2023-02-26T10:19:38.253Z,44.67
2023-02-26T10:22:22.927Z,49.77
2023-02-26T10:24:59.323Z,53.76
2023-02-26T10:27:43.370Z,56.94
2023-02-26T10:30:22.666Z,58.05
2023-02-26T10:32:58.259Z,60.58
2023-02-26T10:35:28.416Z,60.22
2023-02-26T10:37:59.904Z,64.56
2023-02-26T10:40:35.261Z,64.48
2023-02-26T10:43:14.801Z,64.10
2023-02-26T10:45:59.947Z,64.70
2023-02-26T10:48:49.234Z,64.24
2023-02-26T10:51:20.244Z,62.35
2023-02-26T10:53:54.277Z,61.47
2023-02-26T10:56:25.918Z,60.14
2023-02-26T10:58:55.117Z,55.32
2023-02-26T11:01:27.688Z,54.00
2023-02-26T11:03:59.947Z,51.54
2023-02-26T11:06:32.131Z,44.25
2023-02-26T11:09:02.222Z,42.06
2023-02-26T11:11:38.626Z,40.08
2023-02-26T11:14:08.454Z,38.67
2023-02-26T11:16:43.879Z,37.80
2023-02-26T11:19:14.693Z,37.02
2023-02-26T11:21:46.180Z,38.29
2023-02-26T11:24:20.446Z,38.73
2023-02-26T11:26:52.173Z,39.48
2023-02-26T11:29:23.493Z,40.57
2023-02-26T11:31:55.192Z,44.88
2023-02-26T11:34:25.138Z,47.50
2023-02-26T11:36:56.867Z,45.91
2023-02-26T11:39:27.424Z,47.22
2023-02-26T11:41:59.517Z,46.30
2023-02-26T11:44:36.102Z,45.45
2023-02-26T11:47:08.957Z,43.13
2023-02-26T11:49:44.372Z,39.73
2023-02-26T11:52:23.703Z,39.32
2023-02-26T11:54:58.284Z,39.07
2023-02-26T11:57:29.910Z,41.01
2023-02-26T12:00:00.422Z,38.76
2023-02-26T12:02:36.046Z,38.46
2023-02-26T12:05:08.071Z,37.98
2023-02-26T12:07:36.910Z,37.69
2023-02-26T12:10:14.847Z,38.06
2023-02-26T12:13:02.370Z,37.74
2023-02-26T12:15:39.062Z,38.40
2023-02-26T12:18:25.760Z,36.60
2023-02-26T12:21:07.433Z,37.25
2023-02-26T12:24:15.196Z,37.26
2023-02-26T12:26:51.949Z,36.32
2023-02-26T12:29:39.150Z,36.60
2023-02-26T12:32:26.693Z,35.27
2023-02-26T12:35:20.255Z,36.14
2023-02-26T12:37:59.824Z,34.48
2023-02-26T12:40:45.464Z,33.08
2023-02-26T12:43:21.838Z,32.65
2023-02-26T12:45:59.024Z,31.34
2023-02-26T12:48:54.233Z,32.94
2023-02-26T12:51:39.875Z,31.47
2023-02-26T12:54:24.961Z,32.41
2023-02-26T12:57:17.163Z,38.06
2023-02-26T13:00:06.189Z,40.97
2023-02-26T13:03:14.141Z,42.64
2023-02-26T13:06:03.081Z,43.76
2023-02-26T13:08:40.797Z,42.25
2023-02-26T13:11:22.976Z,40.18
2023-02-26T13:14:03.977Z,38.19
2023-02-26T13:16:45.603Z,36.45
2023-02-26T13:19:29.837Z,35.82
2023-02-26T13:22:01.990Z,35.63
2023-02-26T13:24:39.295Z,35.93
2023-02-26T13:27:10.660Z,34.72
2023-02-26T13:29:47.547Z,36.16
2023-02-26T13:32:19.993Z,38.99
2023-02-26T13:34:53.998Z,39.07
2023-02-26T13:37:27.811Z,40.68
2023-02-26T13:40:24.784Z,42.27
2023-02-26T13:43:03.872Z,41.52
2023-02-26T13:45:49.778Z,39.77
2023-02-26T13:48:30.000Z,39.59
2023-02-26T13:51:06.762Z,42.48
2023-02-26T13:53:54.685Z,38.66
2023-02-26T13:56:48.463Z,36.39
2023-02-26T13:59:47.685Z,35.98
2023-02-26T14:02:48.588Z,35.40
2023-02-26T14:06:01.418Z,34.63
2023-02-26T14:08:46.454Z,34.67
2023-02-26T14:12:00.520Z,34.11
2023-02-26T14:14:37.636Z,35.00
2023-02-26T14:17:39.905Z,34.27
2023-02-26T14:20:17.952Z,34.97
2023-02-26T14:22:50.356Z,39.13
2023-02-26T14:25:27.979Z,42.20
2023-02-26T14:28:31.320Z,40.88
2023-02-26T14:31:11.152Z,41.02
2023-02-26T14:33:43.575Z,42.05
2023-02-26T14:36:19.343Z,39.51
2023-02-26T14:38:49.773Z,39.09
2023-02-26T14:41:28.782Z,36.69
2023-02-26T14:44:02.850Z,37.63
2023-02-26T14:46:31.675Z,37.18
2023-02-26T14:49:00.532Z,40.20
2023-02-26T14:51:40.343Z,43.01
2023-02-26T14:54:40.727Z,43.10
2023-02-26T14:57:19.388Z,44.97
2023-02-26T15:00:18.792Z,46.23
2023-02-26T15:03:08.511Z,46.49
2023-02-26T15:05:53.637Z,47.39
2023-02-26T15:08:37.006Z,47.16
2023-02-26T15:11:19.339Z,46.08
2023-02-26T15:14:06.318Z,46.93
2023-02-26T15:16:46.531Z,47.77
2023-02-26T15:19:28.304Z,47.90
2023-02-26T15:22:10.665Z,48.29
2023-02-26T15:24:41.178Z,50.21
2023-02-26T15:27:16.228Z,50.22
2023-02-26T15:29:45.296Z,49.80
2023-02-26T15:32:24.872Z,50.15
2023-02-26T15:35:00.316Z,52.54
2023-02-26T15:37:33.432Z,51.46
2023-02-26T15:40:05.904Z,51.66
2023-02-26T15:42:40.101Z,51.41
2023-02-26T15:45:17.652Z,51.97
2023-02-26T15:47:49.705Z,51.19
2023-02-26T15:50:18.977Z,51.83
2023-02-26T15:52:55.794Z,51.90
2023-02-26T15:55:24.814Z,52.71
2023-02-26T15:57:54.330Z,55.19
2023-02-26T16:00:25.829Z,53.28
2023-02-26T16:02:58.690Z,53.75
2023-02-26T16:05:27.873Z,55.86
2023-02-26T16:07:57.413Z,53.04
2023-02-26T16:10:33.740Z,53.82
2023-02-26T16:13:03.521Z,53.63
2023-02-26T16:15:34.970Z,54.65
2023-02-26T16:18:08.682Z,54.56
2023-02-26T16:20:40.391Z,54.80
2023-02-26T16:23:13.909Z,54.81
2023-02-26T16:25:51.633Z,55.08
2023-02-26T16:28:22.982Z,56.45
2023-02-26T16:30:54.610Z,56.77
2023-02-26T16:33:26.364Z,59.16
2023-02-26T16:36:05.910Z,58.17
2023-02-26T16:38:46.017Z,57.64
2023-02-26T16:41:14.647Z,57.22
2023-02-26T16:43:56.741Z,57.02
2023-02-26T16:46:35.826Z,56.75
2023-02-26T16:49:10.851Z,56.84
2023-02-26T16:51:41.822Z,57.10
2023-02-26T16:54:19.389Z,58.46
2023-02-26T16:57:11.991Z,59.02
2023-02-26T17:00:02.410Z,58.84
2023-02-26T17:02:36.979Z,59.82
2023-02-26T17:05:18.789Z,59.63
2023-02-26T17:07:51.567Z,60.48
2023-02-26T17:10:26.119Z,61.46
2023-02-26T17:13:03.971Z,61.25
2023-02-26T17:15:36.866Z,65.03
2023-02-26T17:18:07.909Z,63.92
2023-02-26T17:20:38.983Z,65.12
2023-02-26T17:23:09.802Z,64.57
2023-02-26T17:25:41.666Z,63.95
2023-02-26T17:28:16.324Z,64.98
2023-02-26T17:30:44.888Z,64.59
2023-02-26T17:33:14.600Z,65.77
2023-02-26T17:35:44.810Z,65.94
2023-02-26T17:38:14.316Z,66.64
2023-02-26T17:40:45.093Z,68.32
2023-02-26T17:43:13.653Z,68.29
2023-02-26T17:45:42.206Z,69.41
2023-02-26T17:48:13.335Z,68.23
2023-02-26T17:50:46.995Z,68.69
2023-02-26T17:53:16.226Z,68.16
2023-02-26T17:55:46.084Z,69.13
2023-02-26T17:58:17.788Z,68.96
2023-02-26T18:00:49.936Z,70.37
2023-02-26T18:03:21.198Z,71.34
2023-02-26T18:05:56.220Z,71.25
2023-02-26T18:08:27.233Z,73.13
2023-02-26T18:10:56.781Z,74.60
2023-02-26T18:13:34.990Z,74.95
2023-02-26T18:16:03.963Z,75.84
2023-02-26T18:18:33.202Z,74.67
2023-02-26T18:21:04.480Z,76.33
2023-02-26T18:23:32.973Z,75.50
2023-02-26T18:26:02.765Z,77.78
2023-02-26T18:28:31.418Z,77.91
2023-02-26T18:31:01.953Z,78.82
2023-02-26T18:33:30.634Z,76.05
2023-02-26T18:35:59.096Z,80.46
2023-02-26T18:38:29.356Z,78.28
2023-02-26T18:40:58.297Z,77.70
2023-02-26T18:43:27.736Z,78.17
2023-02-26T18:45:57.073Z,78.49
2023-02-26T18:48:25.452Z,81.97
2023-02-26T18:50:55.644Z,83.32
2023-02-26T18:53:24.597Z,83.99
2023-02-26T18:55:56.940Z,85.75
2023-02-26T18:58:25.495Z,84.37
2023-02-26T19:00:54.326Z,86.12
2023-02-26T19:03:23.323Z,89.56
2023-02-26T19:05:57.775Z,87.50
2023-02-26T19:08:26.765Z,87.98
2023-02-26T19:10:57.509Z,91.39
2023-02-26T19:13:26.983Z,87.91
2023-02-26T19:15:55.509Z,89.73
2023-02-26T19:18:25.438Z,91.22
2023-02-26T19:20:54.155Z,90.87
2023-02-26T19:23:22.588Z,91.10
2023-02-26T19:25:53.952Z,94.76
2023-02-26T19:28:26.003Z,97.79
2023-02-26T19:30:55.573Z,96.56
2023-02-26T19:33:24.420Z,98.66
2023-02-26T19:35:53.656Z,96.63
2023-02-26T19:38:23.439Z,97.44
2023-02-26T19:40:52.036Z,99.34
2023-02-26T19:43:20.558Z,100.00
2023-02-26T19:45:50.434Z,99.57
2023-02-26T19:48:19.738Z,100.00
2023-02-26T19:50:51.148Z,98.89
2023-02-26T19:53:20.475Z,100.00
2023-02-26T19:55:50.105Z,100.00
2023-02-26T19:58:21.274Z,100.00
2023-02-26T20:00:51.107Z,100.00
2023-02-26T20:03:19.541Z,100.00
2023-02-26T20:05:47.998Z,100.00
2023-02-26T20:08:16.747Z,100.00
2023-02-26T20:10:46.036Z,100.00
2023-02-26T20:13:17.196Z,100.00
2023-02-26T20:15:46.050Z,100.00
2023-02-26T20:18:15.952Z,100.00
2023-02-26T20:20:45.187Z,100.00
2023-02-26T20:23:13.582Z,100.00
2023-02-26T20:25:44.972Z,100.00
2023-02-26T20:28:13.434Z,100.00
2023-02-26T20:30:41.779Z,100.00
2023-02-26T20:33:10.301Z,100.00
2023-02-26T20:35:44.314Z,100.00
2023-02-26T20:38:15.785Z,100.00
2023-02-26T20:40:45.342Z,100.00
2023-02-26T20:43:13.774Z,99.37
2023-02-26T20:45:42.822Z,99.82
2023-02-26T20:48:11.349Z,97.51
2023-02-26T20:50:41.837Z,99.48
2023-02-26T20:53:10.476Z,97.40
2023-02-26T20:55:38.914Z,97.63
2023-02-26T20:58:08.962Z,97.89
2023-02-26T21:00:37.408Z,97.74
2023-02-26T21:03:07.791Z,98.73
2023-02-26T21:05:37.819Z,99.74
2023-02-26T21:08:07.727Z,98.79
2023-02-26T21:10:36.146Z,96.17
2023-02-26T21:13:04.667Z,95.58
2023-02-26T21:15:35.194Z,96.71
2023-02-26T21:18:04.036Z,95.61
2023-02-26T21:20:32.638Z,94.63
2023-02-26T21:23:01.056Z,93.82
2023-02-26T21:25:31.790Z,92.20
2023-02-26T21:28:00.437Z,93.74
2023-02-26T21:30:28.911Z,92.79
2023-02-26T21:32:57.461Z,93.24
2023-02-26T21:35:25.995Z,88.78
2023-02-26T21:37:54.598Z,89.30
2023-02-26T21:40:24.900Z,87.96
2023-02-26T21:42:54.730Z,87.22
2023-02-26T21:45:23.270Z,87.32
2023-02-26T21:47:51.773Z,87.09
2023-02-26T21:50:20.442Z,85.98
2023-02-26T21:52:48.873Z,85.88
2023-02-26T21:55:17.489Z,86.32
2023-02-26T21:57:48.775Z,86.47
2023-02-26T22:00:20.288Z,86.64
2023-02-26T22:02:48.758Z,86.39
2023-02-26T22:05:17.348Z,85.31
2023-02-26T22:07:46.509Z,86.46
2023-02-26T22:10:15.259Z,88.43
2023-02-26T22:12:43.707Z,87.12
2023-02-26T22:15:13.319Z,86.53
2023-02-26T22:17:43.205Z,90.24
2023-02-26T22:20:13.972Z,87.80
2023-02-26T22:22:42.424Z,87.25
2023-02-26T22:25:13.184Z,89.42
2023-02-26T22:27:41.729Z,88.56
2023-02-26T22:30:11.536Z,88.58
2023-02-26T22:32:40.040Z,92.10
2023-02-26T22:35:11.004Z,93.49
2023-02-26T22:37:39.343Z,92.99
2023-02-26T22:40:08.912Z,92.42
2023-02-26T22:42:37.297Z,93.97
2023-02-26T22:45:06.686Z,95.02
2023-02-26T22:47:35.348Z,96.63
2023-02-26T22:50:03.950Z,97.82
2023-02-26T22:52:33.726Z,99.79
2023-02-26T22:55:02.098Z,100.00
2023-02-26T22:57:30.604Z,100.00
2023-02-26T22:59:59.910Z,100.00
2023-02-26T23:02:28.367Z,100.00
2023-02-26T23:04:56.771Z,100.00
2023-02-26T23:07:25.270Z,100.00
2023-02-26T23:09:55.100Z,100.00
2023-02-26T23:12:23.627Z,100.00
2023-02-26T23:14:52.052Z,100.00
2023-02-26T23:17:20.493Z,100.00
2023-02-26T23:19:48.926Z,100.00
2023-02-26T23:22:21.126Z,100.00
2023-02-26T23:24:50.278Z,100.00
2023-02-26T23:27:20.590Z,100.00
2023-02-26T23:29:48.961Z,100.00
2023-02-26T23:32:17.566Z,100.00
2023-02-26T23:34:46.084Z,100.00
2023-02-26T23:37:15.455Z,100.00
2023-02-26T23:39:43.825Z,100.00
2023-02-26T23:42:12.143Z,100.00
2023-02-26T23:44:41.769Z,100.00
2023-02-26T23:47:10.558Z,100.00
2023-02-26T23:49:38.957Z,100.00
2023-02-26T23:52:07.448Z,100.00
2023-02-26T23:54:35.902Z,100.00
2023-02-26T23:57:04.581Z,100.00
2023-02-26T23:59:33.301Z,100.00
